createdAt,value
2019-03-24T00:02:47.809Z,5.33
2019-03-24T00:05:46.729Z,5.20
2019-03-24T00:08:32.370Z,5.07
2019-03-24T00:11:17.213Z,5.37
2019-03-24T00:14:02.447Z,6.30
2019-03-24T00:16:48.061Z,5.87
2019-03-24T00:19:35.003Z,5.17
2019-03-24T00:22:20.648Z,5.37
2019-03-24T00:25:05.715Z,4.67
2019-03-24T00:27:50.566Z,4.57
2019-03-24T00:30:34.784Z,4.63
2019-03-24T00:33:24.744Z,5.10
2019-03-24T00:36:09.809Z,5.07
2019-03-24T00:38:56.660Z,4.90
2019-03-24T00:44:48.946Z,6.30
2019-03-24T00:47:33.304Z,6.30
2019-03-24T00:50:17.829Z,5.90
2019-03-24T00:53:01.687Z,5.93
2019-03-24T00:55:46.434Z,4.42
2019-03-24T00:58:31.145Z,5.60
2019-03-24T01:01:15.580Z,5.30
2019-03-24T01:03:59.662Z,5.97
2019-03-24T01:06:33.789Z,4.93
2019-03-24T01:09:23.970Z,5.72
2019-03-24T01:11:57.043Z,4.13
2019-03-24T01:17:51.800Z,4.62
2019-03-24T01:20:35.933Z,3.97
2019-03-24T01:23:26.034Z,5.10
2019-03-24T01:26:09.855Z,5.30
2019-03-24T01:28:42.965Z,4.93
2019-03-24T01:31:27.202Z,5.05
2019-03-24T01:37:15.955Z,5.07
2019-03-24T01:40:04.111Z,4.47
2019-03-24T01:42:48.587Z,5.40
2019-03-24T01:45:33.367Z,5.47
2019-03-24T01:48:17.910Z,4.50
2019-03-24T01:51:02.451Z,5.53
2019-03-24T01:56:57.486Z,5.57
2019-03-24T01:59:47.581Z,5.00
2019-03-24T02:02:32.511Z,5.00
2019-03-24T02:05:16.777Z,4.87
2019-03-24T02:11:03.585Z,4.43
2019-03-24T02:13:47.582Z,5.10
2019-03-24T02:16:38.552Z,4.90
2019-03-24T02:19:22.357Z,4.97
2019-03-24T02:22:07.218Z,4.93
2019-03-24T02:31:07.911Z,5.33
2019-03-24T02:33:53.776Z,4.77
2019-03-24T02:36:44.377Z,5.23
2019-03-24T02:39:39.950Z,5.17
2019-03-24T02:42:24.080Z,5.13
2019-03-24T02:51:22.742Z,4.90
2019-03-24T02:54:12.526Z,5.10
2019-03-24T02:56:56.734Z,5.10
2019-03-24T02:59:41.358Z,4.70
2019-03-24T03:02:25.781Z,4.90
2019-03-24T03:08:19.830Z,5.30
2019-03-24T03:11:03.868Z,5.47
2019-03-24T03:13:50.649Z,4.87
2019-03-24T03:16:38.699Z,5.20
2019-03-24T03:19:24.937Z,4.83
2019-03-24T03:22:09.197Z,4.73
2019-03-24T03:24:55.784Z,5.37
2019-03-24T03:30:39.205Z,5.27
2019-03-24T03:33:23.984Z,5.67
2019-03-24T03:39:25.370Z,4.90
2019-03-24T03:42:09.889Z,5.72
2019-03-24T03:44:55.176Z,4.93
2019-03-24T03:47:39.807Z,4.90
2019-03-24T03:50:24.085Z,4.80
2019-03-24T03:59:37.530Z,4.70
2019-03-24T04:02:22.980Z,5.30
2019-03-24T04:05:09.291Z,4.70
2019-03-24T04:07:55.248Z,5.10
2019-03-24T04:17:07.119Z,5.37
2019-03-24T04:22:58.810Z,6.10
2019-03-24T04:28:57.807Z,5.80
2019-03-24T04:31:41.854Z,6.90
2019-03-24T04:34:32.462Z,5.30
2019-03-24T04:37:16.252Z,5.10
2019-03-24T04:40:00.204Z,4.83
2019-03-24T04:42:45.609Z,4.70
2019-03-24T04:45:29.593Z,5.37
2019-03-24T04:48:13.569Z,4.47
2019-03-24T04:50:57.691Z,5.03
2019-03-24T04:53:45.505Z,5.43
2019-03-24T04:56:29.779Z,5.50
2019-03-24T05:02:11.164Z,5.10
2019-03-24T05:04:56.451Z,4.87
2019-03-24T05:07:43.950Z,5.13
2019-03-24T05:13:31.437Z,4.77
2019-03-24T05:16:15.820Z,4.60
2019-03-24T05:21:51.791Z,4.50
2019-03-24T05:27:41.890Z,5.60
2019-03-24T05:33:17.113Z,4.03
2019-03-24T05:36:01.961Z,5.17
2019-03-24T05:38:49.910Z,4.70
2019-03-24T05:41:34.676Z,5.25
2019-03-24T05:44:18.783Z,5.13
2019-03-24T05:47:09.386Z,4.53
2019-03-24T05:49:53.174Z,4.70
2019-03-24T05:55:46.792Z,5.03
2019-03-24T05:58:37.338Z,4.60
2019-03-24T06:01:23.195Z,4.87
2019-03-24T06:10:15.809Z,5.70
2019-03-24T06:13:03.726Z,5.00
2019-03-24T06:15:48.686Z,4.63
2019-03-24T06:18:32.939Z,5.03
2019-03-24T06:21:17.336Z,5.70
2019-03-24T06:24:03.154Z,5.60
2019-03-24T06:29:51.284Z,6.65
2019-03-24T06:35:46.767Z,6.93
2019-03-24T06:38:30.880Z,6.08
2019-03-24T06:44:18.288Z,5.57
2019-03-24T06:47:02.275Z,6.17
2019-03-24T06:49:46.947Z,5.53
2019-03-24T06:52:31.245Z,6.13
2019-03-24T06:55:15.519Z,5.97
2019-03-24T06:58:01.332Z,5.37
2019-03-24T07:00:47.209Z,5.47
2019-03-24T07:03:32.809Z,7.10
2019-03-24T07:06:18.291Z,8.05
2019-03-24T07:09:03.014Z,6.57
2019-03-24T07:11:53.114Z,5.77
2019-03-24T07:14:36.995Z,5.77
2019-03-24T07:17:22.059Z,6.10
2019-03-24T07:20:06.766Z,5.57
2019-03-24T07:22:51.196Z,6.27
2019-03-24T07:25:36.010Z,5.20
2019-03-24T07:28:20.254Z,5.90
2019-03-24T07:31:04.932Z,5.30
2019-03-24T07:33:51.520Z,5.72
2019-03-24T07:36:35.951Z,5.90
2019-03-24T07:39:20.559Z,6.10
2019-03-24T07:41:53.598Z,5.60
2019-03-24T07:44:38.290Z,5.00
2019-03-24T07:47:22.670Z,4.83
2019-03-24T07:50:06.793Z,5.67
2019-03-24T07:52:39.928Z,5.80
2019-03-24T07:55:23.968Z,6.07
2019-03-24T07:58:08.780Z,4.70
2019-03-24T08:00:53.890Z,7.30
2019-03-24T08:03:38.589Z,6.70
2019-03-24T08:06:12.490Z,6.10
2019-03-24T08:08:56.417Z,7.40
2019-03-24T08:11:41.037Z,6.40
2019-03-24T08:14:25.565Z,5.60
2019-03-24T08:17:10.171Z,5.67
2019-03-24T08:19:43.500Z,5.60
2019-03-24T08:22:27.417Z,5.60
2019-03-24T08:25:11.598Z,5.40
2019-03-24T08:27:56.282Z,6.40
2019-03-24T08:30:40.129Z,6.87
2019-03-24T08:36:33.771Z,7.03
2019-03-24T08:39:18.506Z,6.60
2019-03-24T08:42:02.552Z,6.67
2019-03-24T08:47:56.780Z,6.53
2019-03-24T08:50:40.835Z,5.50
2019-03-24T08:53:25.989Z,5.87
2019-03-24T08:56:10.148Z,4.80
2019-03-24T08:58:54.632Z,5.65
2019-03-24T09:01:27.526Z,4.47
2019-03-24T09:04:13.523Z,5.90
2019-03-24T09:06:57.968Z,4.70
2019-03-24T09:09:44.535Z,5.17
2019-03-24T09:12:31.149Z,6.40
2019-03-24T09:15:17.096Z,5.17
2019-03-24T09:18:00.990Z,6.87
2019-03-24T09:20:47.550Z,6.53
2019-03-24T09:23:31.936Z,4.90
2019-03-24T09:26:16.985Z,4.67
2019-03-24T09:29:01.164Z,5.10
2019-03-24T09:31:47.182Z,6.90
2019-03-24T09:34:31.183Z,5.60
2019-03-24T09:37:15.484Z,5.05
2019-03-24T09:39:59.972Z,4.62
2019-03-24T09:42:33.255Z,5.27
2019-03-24T09:45:17.553Z,4.37
2019-03-24T09:48:02.241Z,5.03
2019-03-24T09:50:49.246Z,5.23
2019-03-24T09:53:33.272Z,4.90
2019-03-24T09:56:17.396Z,4.50
2019-03-24T09:59:03.205Z,4.70
2019-03-24T10:01:47.806Z,4.78
2019-03-24T10:04:31.656Z,5.23
2019-03-24T10:07:16.434Z,4.15
2019-03-24T10:10:01.070Z,4.67
2019-03-24T10:12:45.234Z,4.17
2019-03-24T10:15:29.515Z,5.23
2019-03-24T10:18:13.947Z,4.50
2019-03-24T10:20:58.670Z,4.47
2019-03-24T10:23:42.832Z,4.40
2019-03-24T10:26:27.536Z,4.60
2019-03-24T10:29:11.403Z,4.93
2019-03-24T10:31:55.488Z,4.23
2019-03-24T10:34:40.458Z,4.57
2019-03-24T10:37:24.982Z,3.53
2019-03-24T10:40:09.729Z,4.47
2019-03-24T10:42:54.873Z,3.80
2019-03-24T10:45:39.960Z,4.63
2019-03-24T10:48:33.338Z,4.03
2019-03-24T10:51:10.216Z,4.03
2019-03-24T10:53:54.526Z,4.40
2019-03-24T10:56:39.309Z,4.33
2019-03-24T10:59:24.149Z,4.17
2019-03-24T11:02:08.423Z,4.10
2019-03-24T11:04:53.381Z,4.30
2019-03-24T11:07:37.925Z,3.37
2019-03-24T11:10:21.693Z,4.13
2019-03-24T11:13:06.319Z,3.75
2019-03-24T11:15:40.369Z,3.80
2019-03-24T11:18:24.964Z,3.90
2019-03-24T11:21:09.819Z,3.90
2019-03-24T11:23:54.971Z,4.33
2019-03-24T11:26:39.337Z,4.07
2019-03-24T11:29:24.069Z,3.57
2019-03-24T11:32:08.590Z,3.70
2019-03-24T11:34:52.941Z,4.23
2019-03-24T11:37:36.904Z,3.00
2019-03-24T11:40:20.772Z,3.20
2019-03-24T11:43:04.786Z,2.37
2019-03-24T11:45:50.043Z,3.23
2019-03-24T11:48:34.677Z,2.62
2019-03-24T11:51:19.586Z,2.57
2019-03-24T11:54:03.938Z,3.70
2019-03-24T11:56:48.601Z,3.07
2019-03-24T11:59:32.711Z,3.73
2019-03-24T12:02:17.330Z,3.20
2019-03-24T12:05:01.173Z,2.73
2019-03-24T12:07:45.382Z,2.97
2019-03-24T12:10:30.759Z,2.33
2019-03-24T12:13:14.815Z,2.90
2019-03-24T12:15:59.733Z,2.83
2019-03-24T12:18:44.670Z,2.90
2019-03-24T12:21:29.311Z,2.40
2019-03-24T12:24:13.999Z,2.70
2019-03-24T12:26:58.128Z,2.57
2019-03-24T12:29:41.931Z,2.60
2019-03-24T12:32:25.693Z,3.27
2019-03-24T12:34:59.824Z,2.45
2019-03-24T12:37:44.576Z,2.33
2019-03-24T12:40:29.691Z,2.22
2019-03-24T12:43:19.502Z,6.22
2019-03-24T12:46:01.258Z,2.33
2019-03-24T12:48:45.196Z,2.30
2019-03-24T12:51:18.237Z,6.17
2019-03-24T12:54:08.747Z,2.37
2019-03-24T12:56:55.295Z,1.90
2019-03-24T12:59:39.823Z,2.53
2019-03-24T13:02:24.673Z,1.82
2019-03-24T13:05:09.447Z,2.37
2019-03-24T13:07:59.514Z,1.87
2019-03-24T13:10:44.287Z,2.87
2019-03-24T13:13:28.677Z,2.40
2019-03-24T13:16:12.783Z,2.53
2019-03-24T13:18:57.360Z,2.00
2019-03-24T13:21:43.047Z,2.10
2019-03-24T13:24:27.445Z,1.73
2019-03-24T13:27:13.953Z,2.37
2019-03-24T13:29:58.035Z,2.70
2019-03-24T13:32:42.606Z,2.87
2019-03-24T13:35:27.265Z,2.37
2019-03-24T13:38:11.950Z,2.50
2019-03-24T13:43:58.578Z,2.37
2019-03-24T13:46:42.623Z,3.05
2019-03-24T13:49:25.794Z,2.60
2019-03-24T13:52:09.326Z,2.80
2019-03-24T13:54:56.871Z,3.17
2019-03-24T13:57:29.925Z,2.58
2019-03-24T14:00:15.784Z,2.73
2019-03-24T14:02:49.448Z,2.70
2019-03-24T14:05:23.046Z,2.80
2019-03-24T14:08:07.743Z,3.00
2019-03-24T14:10:53.820Z,2.47
2019-03-24T14:13:37.887Z,2.57
2019-03-24T14:16:21.845Z,2.33
2019-03-24T14:19:05.918Z,2.08
2019-03-24T14:21:49.830Z,1.90
2019-03-24T14:24:34.438Z,2.00
2019-03-24T14:27:18.512Z,1.90
2019-03-24T14:30:03.255Z,2.80
2019-03-24T14:32:47.314Z,2.17
2019-03-24T14:35:31.160Z,2.03
2019-03-24T14:38:15.483Z,2.67
2019-03-24T14:40:59.594Z,2.20
2019-03-24T14:43:44.244Z,2.30
2019-03-24T14:46:28.170Z,2.37
2019-03-24T14:49:12.159Z,2.07
2019-03-24T14:52:01.088Z,1.83
2019-03-24T14:57:47.176Z,2.70
2019-03-24T15:00:35.566Z,2.62
2019-03-24T15:03:20.157Z,2.90
2019-03-24T15:06:04.916Z,2.73
2019-03-24T15:08:50.680Z,3.00
2019-03-24T15:11:34.558Z,2.80
2019-03-24T15:14:18.474Z,2.53
2019-03-24T15:17:02.231Z,2.35
2019-03-24T15:19:45.981Z,2.60
2019-03-24T15:22:29.847Z,3.53
2019-03-24T15:25:14.704Z,2.37
2019-03-24T15:27:58.918Z,2.50
2019-03-24T15:30:47.225Z,2.70
2019-03-24T15:46:07.748Z,2.37
2019-03-24T15:48:54.004Z,2.50
2019-03-24T15:51:37.909Z,2.90
2019-03-24T15:54:26.262Z,2.23
2019-03-24T15:57:28.527Z,2.60
2019-03-24T16:03:23.749Z,3.17
2019-03-24T16:06:08.263Z,2.90
2019-03-24T16:08:53.037Z,2.85
2019-03-24T16:11:37.725Z,2.70
2019-03-24T16:14:23.909Z,3.60
2019-03-24T16:17:08.159Z,3.40
2019-03-24T16:19:59.205Z,3.20
2019-03-24T16:22:43.334Z,3.00
2019-03-24T16:25:28.069Z,2.93
2019-03-24T16:34:22.883Z,4.00
2019-03-24T16:40:14.047Z,3.20
2019-03-24T16:42:58.777Z,4.10
2019-03-24T16:45:43.143Z,3.50
2019-03-24T16:48:36.354Z,3.17
2019-03-24T16:54:18.285Z,3.25
2019-03-24T16:57:02.217Z,3.23
2019-03-24T16:59:46.390Z,3.00
2019-03-24T17:02:30.916Z,3.00
2019-03-24T17:05:15.704Z,3.03
2019-03-24T17:07:59.970Z,2.90
2019-03-24T17:10:44.113Z,3.30
2019-03-24T17:13:28.761Z,2.90
2019-03-24T17:16:16.969Z,2.70
2019-03-24T17:19:01.193Z,2.67
2019-03-24T17:21:50.126Z,3.00
2019-03-24T17:24:32.788Z,3.08
2019-03-24T17:27:17.067Z,3.33
2019-03-24T17:30:01.243Z,2.90
2019-03-24T17:32:46.137Z,2.17
2019-03-24T17:35:31.371Z,2.80
2019-03-24T17:38:16.477Z,2.33
2019-03-24T17:41:06.398Z,3.00
2019-03-24T17:43:50.745Z,2.50
2019-03-24T17:49:41.496Z,2.73
2019-03-24T17:52:29.878Z,2.47
2019-03-24T17:55:27.711Z,2.77
2019-03-24T17:58:28.699Z,2.37
2019-03-24T18:07:34.440Z,2.63
2019-03-24T18:10:23.198Z,2.73
2019-03-24T18:13:07.613Z,2.57
2019-03-24T18:15:55.864Z,2.20
2019-03-24T18:18:40.085Z,2.50
2019-03-24T18:21:28.901Z,3.67
2019-03-24T18:27:23.381Z,3.73
2019-03-24T18:29:57.388Z,4.60
2019-03-24T18:32:41.753Z,3.90
2019-03-24T18:35:25.445Z,3.57
2019-03-24T18:38:12.673Z,3.37
2019-03-24T18:40:57.089Z,3.13
2019-03-24T18:43:41.712Z,3.30
2019-03-24T18:46:26.505Z,2.72
2019-03-24T18:49:11.163Z,2.97
2019-03-24T18:51:55.913Z,2.80
2019-03-24T18:54:40.865Z,2.53
2019-03-24T18:57:26.549Z,3.20
2019-03-24T19:00:11.520Z,2.87
2019-03-24T19:02:55.783Z,2.60
2019-03-24T19:05:40.360Z,2.60
2019-03-24T19:08:24.958Z,2.55
2019-03-24T19:11:10.567Z,3.40
2019-03-24T19:13:55.527Z,2.67
2019-03-24T19:16:40.207Z,3.23
2019-03-24T19:19:25.161Z,3.30
2019-03-24T19:22:09.839Z,3.70
2019-03-24T19:24:54.981Z,3.87
2019-03-24T19:27:39.172Z,4.70
2019-03-24T19:33:37.779Z,4.30
2019-03-24T19:39:29.948Z,5.57
2019-03-24T19:42:14.291Z,5.33
2019-03-24T19:44:47.359Z,4.73
2019-03-24T19:47:33.512Z,4.77
2019-03-24T19:50:17.990Z,3.70
2019-03-24T19:53:02.634Z,3.57
2019-03-24T19:55:46.472Z,3.43
2019-03-24T19:58:32.256Z,3.00
2019-03-24T20:01:16.387Z,3.25
2019-03-24T20:04:00.429Z,3.80
2019-03-24T20:06:45.988Z,3.87
2019-03-24T20:09:30.721Z,4.67
2019-03-24T20:12:15.985Z,3.90
2019-03-24T20:15:00.338Z,3.90
2019-03-24T20:17:45.136Z,3.87
2019-03-24T20:20:29.877Z,3.80
2019-03-24T20:23:14.926Z,4.83
2019-03-24T20:25:48.953Z,3.73
2019-03-24T20:28:33.613Z,4.60
2019-03-24T20:31:07.890Z,3.83
2019-03-24T20:33:52.689Z,4.13
2019-03-24T20:36:40.926Z,4.27
2019-03-24T20:39:24.929Z,4.05
2019-03-24T20:41:58.203Z,3.55
2019-03-24T20:44:42.745Z,3.10
2019-03-24T20:47:27.896Z,3.50
2019-03-24T20:50:13.200Z,3.13
2019-03-24T20:53:04.009Z,2.92
2019-03-24T20:55:45.078Z,2.80
2019-03-24T20:58:31.641Z,2.70
2019-03-24T21:01:05.026Z,2.90
2019-03-24T21:03:49.994Z,2.93
2019-03-24T21:06:34.966Z,2.40
2019-03-24T21:09:24.426Z,2.60
2019-03-24T21:12:08.852Z,3.30
2019-03-24T21:14:42.149Z,2.50
2019-03-24T21:17:27.099Z,2.53
2019-03-24T21:20:11.949Z,2.77
2019-03-24T21:22:58.084Z,2.60
2019-03-24T21:25:42.872Z,2.53
2019-03-24T21:28:28.742Z,2.67
2019-03-24T21:31:12.713Z,3.23
2019-03-24T21:33:46.109Z,2.53
2019-03-24T21:36:31.593Z,3.23
2019-03-24T21:39:15.561Z,2.70
2019-03-24T21:42:04.556Z,2.60
2019-03-24T21:44:50.657Z,3.07
2019-03-24T21:47:35.358Z,2.83
2019-03-24T21:50:19.290Z,3.30
2019-03-24T21:53:04.368Z,3.30
2019-03-24T21:55:48.567Z,3.37
2019-03-24T21:58:33.714Z,3.40
2019-03-24T22:01:17.667Z,3.07
2019-03-24T22:04:01.796Z,3.85
2019-03-24T22:06:46.747Z,4.03
2019-03-24T22:09:32.345Z,3.63
2019-03-24T22:12:17.472Z,3.98
2019-03-24T22:15:02.962Z,9.40
2019-03-24T22:17:48.054Z,8.68
2019-03-24T22:20:32.262Z,7.27
2019-03-24T22:23:17.316Z,11.47
2019-03-24T22:26:01.182Z,9.30
2019-03-24T22:28:45.797Z,6.80
2019-03-24T22:31:31.173Z,6.40
2019-03-24T22:34:17.080Z,6.53
2019-03-24T22:37:01.837Z,6.90
2019-03-24T22:39:46.862Z,6.97
2019-03-24T22:42:31.624Z,6.87
2019-03-24T22:45:15.756Z,7.43
2019-03-24T22:48:00.035Z,8.73
2019-03-24T22:50:44.365Z,7.40
2019-03-24T22:53:29.719Z,6.30
2019-03-24T22:56:14.037Z,6.80
2019-03-24T22:58:58.291Z,6.58
2019-03-24T23:04:52.937Z,5.30
2019-03-24T23:07:37.695Z,5.00
2019-03-24T23:10:22.487Z,4.70
2019-03-24T23:13:07.025Z,4.97
2019-03-24T23:15:51.210Z,4.90
2019-03-24T23:18:36.149Z,5.15
2019-03-24T23:21:20.762Z,4.72
2019-03-24T23:24:14.886Z,5.00
2019-03-24T23:26:39.994Z,4.83
2019-03-24T23:29:24.682Z,4.60
2019-03-24T23:32:11.547Z,4.57
2019-03-24T23:34:56.447Z,4.17
2019-03-24T23:37:42.889Z,5.03
2019-03-24T23:40:27.566Z,5.00
2019-03-24T23:43:11.527Z,5.40
2019-03-24T23:45:56.464Z,4.43
2019-03-24T23:48:40.606Z,4.97
2019-03-24T23:51:26.603Z,4.83
2019-03-24T23:54:12.655Z,3.87
2019-03-24T23:56:57.726Z,4.90
2019-03-24T23:59:41.485Z,4.37
